Kamikawa Maru — JG5687 — position and weather

sailwx.info

Track history (hours):
 
Tides and Currents Weather Stations Pressure Air Temp Water Temp Dewpoint Dewpoint Depression Visibility Wind Speed Wind Dir Waves Ship Positions

Kamikawa Maru

Last reported at 2018-Jan-22 23:58 UTC. Time now 2018-Jan-23 00:25 UTC.
Position N 35°38' E 139°46'.

Length 162 m; draft 6.8 m.

Type: Cargo ship. MMSI: 431101012.

Date/timePositionNaut miles runAvg speedWind from/ knotsBaromVisibWave heightAir tempDewpointWater temp
2018-Jan-22 23:58N 35°38' E 139°46'0 0.2
2018-Jan-22 23:29N 35°38' E 139°46'511.1
2018-Jan-22 23:00N 35°34' E 139°50'3 6.1
2018-Jan-22 22:28N 35°33' E 139°53'0 0.0
2018-Jan-22 21:59N 35°33' E 139°53'0 0.0
2018-Jan-22 21:29N 35°33' E 139°53'0 0.0
2018-Jan-22 20:56N 35°33' E 139°53'0 0.1
2018-Jan-22 20:26N 35°33' E 139°53'0 0.1
2018-Jan-22 20:00N 35°33' E 139°53'815.6
2018-Jan-22 19:30N 35°26' E 139°48'713.8
2018-Jan-22 19:00N 35°20' E 139°44'612.4
2018-Jan-22 18:30N 35°14' E 139°47'816.3
2018-Jan-22 18:00N 35°06' E 139°45'1019.3
2018-Jan-22 17:30N 34°59' E 139°36'1019.6
2018-Jan-22 17:00N 34°53' E 139°26'1020.5
2018-Jan-22 16:30N 34°46' E 139°17'1120.9
2018-Jan-22 15:59N 34°38' E 139°09'1020.8
2018-Jan-22 15:30N 34°32' E 138°59'1221.3
2018-Jan-22 14:56N 34°31' E 138°44'920.3
2018-Jan-22 14:30N 34°32' E 138°34'1119.7
2018-Jan-22 13:56N 34°31' E 138°20'2119.8
2018-Jan-22 12:54N 34°31' E 137°55'3119.4
2018-Jan-22 11:18N 34°32' E 137°18'619.2
2018-Jan-22 10:59N 34°32' E 137°10'816.7
2018-Jan-22 10:31N 34°33' E 137°01'816.3
2018-Jan-22 10:00N 34°38' E 136°53'1019.5
2018-Jan-22 09:30N 34°46' E 136°46'1019.6
2018-Jan-22 09:01N 34°56' E 136°45'714.5
2018-Jan-22 08:31N 35°02' E 136°51'3 5.8
2018-Jan-22 07:57N 35°05' E 136°52'0 0.0
2018-Jan-22 07:27N 35°05' E 136°52'0 0.0
2018-Jan-22 06:57N 35°05' E 136°52'0 0.0
2018-Jan-22 06:30N 35°05' E 136°52'0 0.0
2018-Jan-22 06:00N 35°05' E 136°52'0 0.0
2018-Jan-22 05:27N 35°05' E 136°52'0 0.0
2018-Jan-22 04:57N 35°05' E 136°52'0 0.0
2018-Jan-22 04:27N 35°05' E 136°52'0 0.0
2018-Jan-22 03:57N 35°05' E 136°52'0 0.0
2018-Jan-22 03:30N 35°05' E 136°52'0 0.0
2018-Jan-22 02:57N 35°05' E 136°52'0 0.0
2018-Jan-22 02:30N 35°05' E 136°52'0 0.0
2018-Jan-22 02:00N 35°05' E 136°52'0 0.0
2018-Jan-22 01:30N 35°05' E 136°52'0 0.0
2018-Jan-22 01:00N 35°05' E 136°52'0 0.0
2018-Jan-22 00:30N 35°05' E 136°52'0 0.0
2018-Jan-21 23:57N 35°05' E 136°52'0 0.0
2018-Jan-21 23:30N 35°05' E 136°52'0 0.3
2018-Jan-21 23:00N 35°05' E 136°52'5 9.6
2018-Jan-21 22:30N 35°00' E 136°50'713.5
2018-Jan-21 22:00N 34°54' E 136°46'4 7.8
2018-Jan-21 21:30N 34°51' E 136°44'0 0.0
2018-Jan-21 21:00N 34°51' E 136°44'0 0.0
2018-Jan-21 20:30N 34°51' E 136°44'0 0.1
2018-Jan-21 20:00N 34°51' E 136°44'0 0.0
2018-Jan-21 19:18N 34°51' E 136°44'0 0.0
2018-Jan-21 19:00N 34°51' E 136°44'0 0.0
2018-Jan-21 18:30N 34°51' E 136°44'0 0.0
2018-Jan-21 18:00N 34°51' E 136°44'0 0.0
2018-Jan-21 17:30N 34°51' E 136°44'0 0.0
2018-Jan-21 17:00N 34°51' E 136°44'0 0.0
2018-Jan-21 16:30N 34°51' E 136°44'0 0.1
2018-Jan-21 16:00N 34°51' E 136°44'3 5.9
2018-Jan-21 15:30N 34°48' E 136°44'918.5
2018-Jan-21 15:00N 34°40' E 136°51'817.1
2018-Jan-21 14:30N 34°35' E 136°59'1115.7
2018-Jan-21 13:47N 34°31' E 137°11'619.5
2018-Jan-21 13:30N 34°31' E 137°18'2019.1
2018-Jan-21 12:28N 34°29' E 137°42'918.6
2018-Jan-21 11:58N 34°28' E 137°53'1019.1
2018-Jan-21 11:28N 34°28' E 138°05'1118.6
2018-Jan-21 10:54N 34°28' E 138°18'718.7
2018-Jan-21 10:30N 34°29' E 138°27'918.5
2018-Jan-21 10:00N 34°30' E 138°38'918.5
2018-Jan-21 09:30N 34°32' E 138°49'817.3
2018-Jan-21 09:00N 34°33' E 138°59'918.2
2018-Jan-21 08:29N 34°40' E 139°07'1017.8
2018-Jan-21 07:57N 34°48' E 139°14'917.5
2018-Jan-21 07:26N 34°54' E 139°23'717.6
2018-Jan-21 07:00N 34°59' E 139°30'1019.3
2018-Jan-21 06:30N 35°05' E 139°39'917.2
2018-Jan-21 06:00N 35°11' E 139°46'612.7
2018-Jan-21 05:30N 35°17' E 139°45'714.0
2018-Jan-21 05:01N 35°24' E 139°43'918.4
2018-Jan-21 04:30N 35°31' E 139°51'815.6
2018-Jan-21 04:00N 35°37' E 139°46'1 0.1
2018-Jan-20 23:58N 35°38' E 139°46'1 1.1
2018-Jan-20 23:30N 35°37' E 139°46'611.6
2018-Jan-20 23:00N 35°33' E 139°51'714.0
2018-Jan-20 22:31N 35°26' E 139°49'713.3
2018-Jan-20 22:00N 35°21' E 139°45'611.5
2018-Jan-20 21:30N 35°15' E 139°47'714.7
2018-Jan-20 21:00N 35°08' E 139°45'917.8
2018-Jan-20 20:30N 34°59' E 139°42'816.8
2018-Jan-20 20:00N 34°52' E 139°46'1016.3
2018-Jan-20 19:22N 34°52' E 139°59'817.6
2018-Jan-20 18:55N 34°56' E 140°07'1217.5
2018-Jan-20 18:13N 35°02' E 140°20'  
Track history (hours):
 
Tides and Currents Weather Stations Pressure Air Temp Water Temp Dewpoint Dewpoint Depression Visibility Wind Speed Wind Dir Waves Ship Positions

Kamikawa Maru

Last reported at 2018-Jan-22 23:58 UTC. Time now 2018-Jan-23 00:25 UTC.
Position N 35°38' E 139°46'.

Length 162 m; draft 6.8 m.

Type: Cargo ship. MMSI: 431101012.

Date/timePositionNaut miles runAvg speedWind from/ knotsBaromVisibWave heightAir tempDewpointWater temp
2018-Jan-22 23:58N 35°38' E 139°46'0 0.2
2018-Jan-22 23:29N 35°38' E 139°46'511.1
2018-Jan-22 23:00N 35°34' E 139°50'3 6.1
2018-Jan-22 22:28N 35°33' E 139°53'0 0.0
2018-Jan-22 21:59N 35°33' E 139°53'0 0.0
2018-Jan-22 21:29N 35°33' E 139°53'0 0.0
2018-Jan-22 20:56N 35°33' E 139°53'0 0.1
2018-Jan-22 20:26N 35°33' E 139°53'0 0.1
2018-Jan-22 20:00N 35°33' E 139°53'815.6
2018-Jan-22 19:30N 35°26' E 139°48'713.8
2018-Jan-22 19:00N 35°20' E 139°44'612.4
2018-Jan-22 18:30N 35°14' E 139°47'816.3
2018-Jan-22 18:00N 35°06' E 139°45'1019.3
2018-Jan-22 17:30N 34°59' E 139°36'1019.6
2018-Jan-22 17:00N 34°53' E 139°26'1020.5
2018-Jan-22 16:30N 34°46' E 139°17'1120.9
2018-Jan-22 15:59N 34°38' E 139°09'1020.8
2018-Jan-22 15:30N 34°32' E 138°59'1221.3
2018-Jan-22 14:56N 34°31' E 138°44'920.3
2018-Jan-22 14:30N 34°32' E 138°34'1119.7
2018-Jan-22 13:56N 34°31' E 138°20'2119.8
2018-Jan-22 12:54N 34°31' E 137°55'3119.4
2018-Jan-22 11:18N 34°32' E 137°18'619.2
2018-Jan-22 10:59N 34°32' E 137°10'816.7
2018-Jan-22 10:31N 34°33' E 137°01'816.3
2018-Jan-22 10:00N 34°38' E 136°53'1019.5
2018-Jan-22 09:30N 34°46' E 136°46'1019.6
2018-Jan-22 09:01N 34°56' E 136°45'714.5
2018-Jan-22 08:31N 35°02' E 136°51'3 5.8
2018-Jan-22 07:57N 35°05' E 136°52'0 0.0
2018-Jan-22 07:27N 35°05' E 136°52'0 0.0
2018-Jan-22 06:57N 35°05' E 136°52'0 0.0
2018-Jan-22 06:30N 35°05' E 136°52'0 0.0
2018-Jan-22 06:00N 35°05' E 136°52'0 0.0
2018-Jan-22 05:27N 35°05' E 136°52'0 0.0
2018-Jan-22 04:57N 35°05' E 136°52'0 0.0
2018-Jan-22 04:27N 35°05' E 136°52'0 0.0
2018-Jan-22 03:57N 35°05' E 136°52'0 0.0
2018-Jan-22 03:30N 35°05' E 136°52'0 0.0
2018-Jan-22 02:57N 35°05' E 136°52'0 0.0
2018-Jan-22 02:30N 35°05' E 136°52'0 0.0
2018-Jan-22 02:00N 35°05' E 136°52'0 0.0
2018-Jan-22 01:30N 35°05' E 136°52'0 0.0
2018-Jan-22 01:00N 35°05' E 136°52'0 0.0
2018-Jan-22 00:30N 35°05' E 136°52'0 0.0
2018-Jan-21 23:57N 35°05' E 136°52'0 0.0
2018-Jan-21 23:30N 35°05' E 136°52'0 0.3
2018-Jan-21 23:00N 35°05' E 136°52'5 9.6
2018-Jan-21 22:30N 35°00' E 136°50'713.5
2018-Jan-21 22:00N 34°54' E 136°46'4 7.8
2018-Jan-21 21:30N 34°51' E 136°44'0 0.0
2018-Jan-21 21:00N 34°51' E 136°44'0 0.0
2018-Jan-21 20:30N 34°51' E 136°44'0 0.1
2018-Jan-21 20:00N 34°51' E 136°44'0 0.0
2018-Jan-21 19:18N 34°51' E 136°44'0 0.0
2018-Jan-21 19:00N 34°51' E 136°44'0 0.0
2018-Jan-21 18:30N 34°51' E 136°44'0 0.0
2018-Jan-21 18:00N 34°51' E 136°44'0 0.0
2018-Jan-21 17:30N 34°51' E 136°44'0 0.0
2018-Jan-21 17:00N 34°51' E 136°44'0 0.0
2018-Jan-21 16:30N 34°51' E 136°44'0 0.1
2018-Jan-21 16:00N 34°51' E 136°44'3 5.9
2018-Jan-21 15:30N 34°48' E 136°44'918.5
2018-Jan-21 15:00N 34°40' E 136°51'817.1
2018-Jan-21 14:30N 34°35' E 136°59'1115.7
2018-Jan-21 13:47N 34°31' E 137°11'619.5
2018-Jan-21 13:30N 34°31' E 137°18'2019.1
2018-Jan-21 12:28N 34°29' E 137°42'918.6
2018-Jan-21 11:58N 34°28' E 137°53'1019.1
2018-Jan-21 11:28N 34°28' E 138°05'1118.6
2018-Jan-21 10:54N 34°28' E 138°18'718.7
2018-Jan-21 10:30N 34°29' E 138°27'918.5
2018-Jan-21 10:00N 34°30' E 138°38'918.5
2018-Jan-21 09:30N 34°32' E 138°49'817.3
2018-Jan-21 09:00N 34°33' E 138°59'918.2
2018-Jan-21 08:29N 34°40' E 139°07'1017.8
2018-Jan-21 07:57N 34°48' E 139°14'917.5
2018-Jan-21 07:26N 34°54' E 139°23'717.6
2018-Jan-21 07:00N 34°59' E 139°30'1019.3
2018-Jan-21 06:30N 35°05' E 139°39'917.2
2018-Jan-21 06:00N 35°11' E 139°46'612.7
2018-Jan-21 05:30N 35°17' E 139°45'714.0
2018-Jan-21 05:01N 35°24' E 139°43'918.4
2018-Jan-21 04:30N 35°31' E 139°51'815.6
2018-Jan-21 04:00N 35°37' E 139°46'1 0.1
2018-Jan-20 23:58N 35°38' E 139°46'1 1.1
2018-Jan-20 23:30N 35°37' E 139°46'611.6
2018-Jan-20 23:00N 35°33' E 139°51'714.0
2018-Jan-20 22:31N 35°26' E 139°49'713.3
2018-Jan-20 22:00N 35°21' E 139°45'611.5
2018-Jan-20 21:30N 35°15' E 139°47'714.7
2018-Jan-20 21:00N 35°08' E 139°45'917.8
2018-Jan-20 20:30N 34°59' E 139°42'816.8
2018-Jan-20 20:00N 34°52' E 139°46'1016.3
2018-Jan-20 19:22N 34°52' E 139°59'817.6
2018-Jan-20 18:55N 34°56' E 140°07'1217.5
2018-Jan-20 18:13N 35°02' E 140°20'  

Dump ship's entire track history